sensor_id;sensor_type;location;lat;lon;timestamp;temperature;humidity
935;DHT22;454;53.254;10.400;2022-08-05T04:02:04;18.30;99.90
935;DHT22;454;53.254;10.400;2022-08-05T04:04:31;18.40;99.90
935;DHT22;454;53.254;10.400;2022-08-05T04:06:59;18.40;99.90
935;DHT22;454;53.254;10.400;2022-08-05T04:09:27;18.40;99.90
935;DHT22;454;53.254;10.400;2022-08-05T04:11:55;18.40;99.90
935;DHT22;454;53.254;10.400;2022-08-05T04:14:22;18.30;99.90
935;DHT22;454;53.254;10.400;2022-08-05T04:16:49;18.30;99.90
935;DHT22;454;53.254;10.400;2022-08-05T04:19:17;18.30;99.90
935;DHT22;454;53.254;10.400;2022-08-05T04:21:45;18.20;99.90
935;DHT22;454;53.254;10.400;2022-08-05T04:24:12;18.20;99.90
935;DHT22;454;53.254;10.400;2022-08-05T04:26:38;18.10;99.90
935;DHT22;454;53.254;10.400;2022-08-05T04:29:05;18.00;99.90
935;DHT22;454;53.254;10.400;2022-08-05T04:31:32;18.00;99.90
935;DHT22;454;53.254;10.400;2022-08-05T04:33:58;18.10;99.90
935;DHT22;454;53.254;10.400;2022-08-05T04:36:26;18.10;99.90
935;DHT22;454;53.254;10.400;2022-08-05T04:38:53;18.00;99.90
935;DHT22;454;53.254;10.400;2022-08-05T04:41:20;18.00;99.90
935;DHT22;454;53.254;10.400;2022-08-05T04:43:46;18.00;99.90
935;DHT22;454;53.254;10.400;2022-08-05T04:46:13;18.00;99.90
935;DHT22;454;53.254;10.400;2022-08-05T04:48:40;18.00;99.90
935;DHT22;454;53.254;10.400;2022-08-05T04:51:06;17.90;99.90
935;DHT22;454;53.254;10.400;2022-08-05T04:53:35;17.80;99.90
935;DHT22;454;53.254;10.400;2022-08-05T04:56:02;17.80;99.90
935;DHT22;454;53.254;10.400;2022-08-05T04:58:29;17.80;99.90
935;DHT22;454;53.254;10.400;2022-08-05T05:00:56;17.80;99.90
935;DHT22;454;53.254;10.400;2022-08-05T05:03:22;17.70;99.90
935;DHT22;454;53.254;10.400;2022-08-05T05:05:49;17.70;99.90
935;DHT22;454;53.254;10.400;2022-08-05T05:08:16;17.70;99.90
935;DHT22;454;53.254;10.400;2022-08-05T05:10:45;17.80;99.90
935;DHT22;454;53.254;10.400;2022-08-05T05:13:14;17.80;99.90
935;DHT22;454;53.254;10.400;2022-08-05T05:15:42;17.80;99.90
935;DHT22;454;53.254;10.400;2022-08-05T05:18:12;17.80;99.90
935;DHT22;454;53.254;10.400;2022-08-05T05:20:41;17.90;99.90
935;DHT22;454;53.254;10.400;2022-08-05T05:23:07;17.90;99.90
935;DHT22;454;53.254;10.400;2022-08-05T05:25:34;17.90;99.90
935;DHT22;454;53.254;10.400;2022-08-05T05:28:03;17.90;99.90
935;DHT22;454;53.254;10.400;2022-08-05T05:30:30;17.90;99.90
935;DHT22;454;53.254;10.400;2022-08-05T05:32:57;17.90;99.90
935;DHT22;454;53.254;10.400;2022-08-05T05:35:24;17.90;99.90
935;DHT22;454;53.254;10.400;2022-08-05T05:37:52;17.90;99.90
935;DHT22;454;53.254;10.400;2022-08-05T05:40:21;17.90;99.90
935;DHT22;454;53.254;10.400;2022-08-05T05:42:49;17.90;99.90
935;DHT22;454;53.254;10.400;2022-08-05T05:45:18;17.90;99.90
935;DHT22;454;53.254;10.400;2022-08-05T05:47:45;17.90;99.90
935;DHT22;454;53.254;10.400;2022-08-05T05:50:14;17.90;99.90
935;DHT22;454;53.254;10.400;2022-08-05T05:52:41;17.90;99.90
935;DHT22;454;53.254;10.400;2022-08-05T05:55:10;17.90;99.90
935;DHT22;454;53.254;10.400;2022-08-05T05:57:38;17.90;99.90
935;DHT22;454;53.254;10.400;2022-08-05T06:00:07;17.90;99.90
935;DHT22;454;53.254;10.400;2022-08-05T06:02:36;17.90;99.90
935;DHT22;454;53.254;10.400;2022-08-05T06:05:03;18.00;99.90
935;DHT22;454;53.254;10.400;2022-08-05T06:07:30;18.00;99.90
935;DHT22;454;53.254;10.400;2022-08-05T06:09:56;18.00;99.90
935;DHT22;454;53.254;10.400;2022-08-05T06:12:23;18.00;99.90
935;DHT22;454;53.254;10.400;2022-08-05T06:14:50;18.10;99.90
935;DHT22;454;53.254;10.400;2022-08-05T06:17:16;18.10;99.90
935;DHT22;454;53.254;10.400;2022-08-05T06:19:44;18.10;99.90
935;DHT22;454;53.254;10.400;2022-08-05T06:22:11;18.10;99.90
935;DHT22;454;53.254;10.400;2022-08-05T06:24:41;18.20;99.90
935;DHT22;454;53.254;10.400;2022-08-05T06:27:07;18.10;99.90
935;DHT22;454;53.254;10.400;2022-08-05T06:29:34;18.10;99.90
935;DHT22;454;53.254;10.400;2022-08-05T06:32:01;18.20;99.90
935;DHT22;454;53.254;10.400;2022-08-05T06:34:28;18.20;99.90
935;DHT22;454;53.254;10.400;2022-08-05T06:36:56;18.20;99.90
935;DHT22;454;53.254;10.400;2022-08-05T06:39:22;18.30;99.90
935;DHT22;454;53.254;10.400;2022-08-05T06:41:49;18.40;99.90
935;DHT22;454;53.254;10.400;2022-08-05T06:44:16;18.40;99.90
935;DHT22;454;53.254;10.400;2022-08-05T06:46:43;18.50;99.90
935;DHT22;454;53.254;10.400;2022-08-05T06:49:09;18.50;99.90
935;DHT22;454;53.254;10.400;2022-08-05T06:51:36;18.80;99.90
935;DHT22;454;53.254;10.400;2022-08-05T06:54:04;19.00;99.90
935;DHT22;454;53.254;10.400;2022-08-05T06:56:31;19.10;99.90
935;DHT22;454;53.254;10.400;2022-08-05T06:58:58;19.40;99.90
935;DHT22;454;53.254;10.400;2022-08-05T07:01:25;19.70;99.90
935;DHT22;454;53.254;10.400;2022-08-05T07:03:51;20.30;99.90
935;DHT22;454;53.254;10.400;2022-08-05T07:06:18;20.40;99.90
935;DHT22;454;53.254;10.400;2022-08-05T07:08:45;20.40;99.90
935;DHT22;454;53.254;10.400;2022-08-05T07:11:13;20.40;99.90
935;DHT22;454;53.254;10.400;2022-08-05T07:13:40;20.10;99.90
935;DHT22;454;53.254;10.400;2022-08-05T07:16:24;20.00;99.90
935;DHT22;454;53.254;10.400;2022-08-05T07:19:09;19.90;99.90
935;DHT22;454;53.254;10.400;2022-08-05T07:21:36;20.00;99.90
935;DHT22;454;53.254;10.400;2022-08-05T07:24:03;19.90;99.90
935;DHT22;454;53.254;10.400;2022-08-05T07:26:31;19.90;99.90
935;DHT22;454;53.254;10.400;2022-08-05T07:28:58;19.90;99.90
935;DHT22;454;53.254;10.400;2022-08-05T07:31:25;19.80;99.90
935;DHT22;454;53.254;10.400;2022-08-05T07:33:51;19.70;99.90
935;DHT22;454;53.254;10.400;2022-08-05T07:36:18;19.60;99.90
935;DHT22;454;53.254;10.400;2022-08-05T07:38:45;19.50;99.90
935;DHT22;454;53.254;10.400;2022-08-05T07:41:14;19.40;99.90
935;DHT22;454;53.254;10.400;2022-08-05T07:43:43;19.30;99.90
935;DHT22;454;53.254;10.400;2022-08-05T07:46:10;19.30;99.90
935;DHT22;454;53.254;10.400;2022-08-05T07:48:37;19.30;99.90
935;DHT22;454;53.254;10.400;2022-08-05T07:51:04;19.20;99.90
935;DHT22;454;53.254;10.400;2022-08-05T07:53:31;19.20;99.90
935;DHT22;454;53.254;10.400;2022-08-05T07:55:58;19.10;99.90
935;DHT22;454;53.254;10.400;2022-08-05T07:58:24;19.00;99.90
935;DHT22;454;53.254;10.400;2022-08-05T08:00:52;18.90;99.90
935;DHT22;454;53.254;10.400;2022-08-05T08:03:19;18.80;99.90
935;DHT22;454;53.254;10.400;2022-08-05T08:05:46;18.90;99.90
935;DHT22;454;53.254;10.400;2022-08-05T08:08:15;18.90;99.90
935;DHT22;454;53.254;10.400;2022-08-05T08:10:42;18.80;99.90
935;DHT22;454;53.254;10.400;2022-08-05T08:13:09;18.70;99.90
935;DHT22;454;53.254;10.400;2022-08-05T08:15:36;18.60;99.90
935;DHT22;454;53.254;10.400;2022-08-05T08:18:04;18.60;99.90
935;DHT22;454;53.254;10.400;2022-08-05T08:20:31;18.60;99.90
935;DHT22;454;53.254;10.400;2022-08-05T08:22:59;18.50;99.90
935;DHT22;454;53.254;10.400;2022-08-05T08:25:27;18.40;99.90
935;DHT22;454;53.254;10.400;2022-08-05T08:27:54;18.40;99.90
935;DHT22;454;53.254;10.400;2022-08-05T08:30:21;18.30;99.90
935;DHT22;454;53.254;10.400;2022-08-05T08:32:47;18.30;99.90
935;DHT22;454;53.254;10.400;2022-08-05T08:35:15;18.30;99.90
935;DHT22;454;53.254;10.400;2022-08-05T08:37:42;18.30;99.90
935;DHT22;454;53.254;10.400;2022-08-05T08:40:10;18.20;99.90
935;DHT22;454;53.254;10.400;2022-08-05T08:42:37;18.20;99.90
935;DHT22;454;53.254;10.400;2022-08-05T08:45:05;18.20;99.90
935;DHT22;454;53.254;10.400;2022-08-05T08:47:32;18.10;99.90
935;DHT22;454;53.254;10.400;2022-08-05T08:50:01;18.20;99.90
935;DHT22;454;53.254;10.400;2022-08-05T08:52:31;18.10;99.90
935;DHT22;454;53.254;10.400;2022-08-05T08:54:58;18.10;99.90
935;DHT22;454;53.254;10.400;2022-08-05T08:57:26;18.20;99.90
935;DHT22;454;53.254;10.400;2022-08-05T08:59:53;18.20;99.90
935;DHT22;454;53.254;10.400;2022-08-05T09:02:20;18.20;99.90
935;DHT22;454;53.254;10.400;2022-08-05T09:04:47;18.00;99.90
935;DHT22;454;53.254;10.400;2022-08-05T09:07:13;18.00;99.90
935;DHT22;454;53.254;10.400;2022-08-05T09:09:42;18.00;99.90
935;DHT22;454;53.254;10.400;2022-08-05T09:12:09;18.10;99.90
935;DHT22;454;53.254;10.400;2022-08-05T09:14:37;18.10;99.90
935;DHT22;454;53.254;10.400;2022-08-05T09:17:05;18.10;99.90
935;DHT22;454;53.254;10.400;2022-08-05T09:19:32;18.10;99.90
935;DHT22;454;53.254;10.400;2022-08-05T09:21:59;18.10;99.90
935;DHT22;454;53.254;10.400;2022-08-05T09:24:26;18.20;99.90
935;DHT22;454;53.254;10.400;2022-08-05T09:26:56;18.30;99.90
935;DHT22;454;53.254;10.400;2022-08-05T09:29:37;18.30;99.90
935;DHT22;454;53.254;10.400;2022-08-05T09:32:05;18.30;99.90
935;DHT22;454;53.254;10.400;2022-08-05T09:34:46;18.30;99.90
935;DHT22;454;53.254;10.400;2022-08-05T09:37:17;18.30;99.90
935;DHT22;454;53.254;10.400;2022-08-05T09:39:43;18.30;99.90
935;DHT22;454;53.254;10.400;2022-08-05T09:42:13;18.30;99.90
935;DHT22;454;53.254;10.400;2022-08-05T09:44:42;18.40;99.90
935;DHT22;454;53.254;10.400;2022-08-05T09:47:11;18.40;99.90
935;DHT22;454;53.254;10.400;2022-08-05T09:49:43;18.40;99.90
935;DHT22;454;53.254;10.400;2022-08-05T09:52:22;18.50;99.90
935;DHT22;454;53.254;10.400;2022-08-05T09:54:54;18.50;99.90
935;DHT22;454;53.254;10.400;2022-08-05T09:57:31;18.50;99.90
935;DHT22;454;53.254;10.400;2022-08-05T09:59:59;18.50;99.90
935;DHT22;454;53.254;10.400;2022-08-05T10:02:33;18.60;99.90
935;DHT22;454;53.254;10.400;2022-08-05T10:05:09;18.60;99.90
935;DHT22;454;53.254;10.400;2022-08-05T10:07:51;18.60;99.90
935;DHT22;454;53.254;10.400;2022-08-05T10:10:19;18.70;99.90
935;DHT22;454;53.254;10.400;2022-08-05T10:12:50;18.70;99.90
935;DHT22;454;53.254;10.400;2022-08-05T10:15:21;18.70;99.90
935;DHT22;454;53.254;10.400;2022-08-05T10:18:12;18.80;99.90
935;DHT22;454;53.254;10.400;2022-08-05T10:20:42;18.80;99.90
935;DHT22;454;53.254;10.400;2022-08-05T10:23:11;18.80;99.90
935;DHT22;454;53.254;10.400;2022-08-05T10:25:38;18.80;99.90
935;DHT22;454;53.254;10.400;2022-08-05T10:28:07;18.80;99.90
935;DHT22;454;53.254;10.400;2022-08-05T10:30:34;18.80;99.90
935;DHT22;454;53.254;10.400;2022-08-05T10:33:03;18.90;99.90
935;DHT22;454;53.254;10.400;2022-08-05T10:35:30;18.90;99.90
935;DHT22;454;53.254;10.400;2022-08-05T10:37:57;18.80;99.90
935;DHT22;454;53.254;10.400;2022-08-05T10:40:30;18.80;99.90
935;DHT22;454;53.254;10.400;2022-08-05T10:43:05;18.80;99.90
935;DHT22;454;53.254;10.400;2022-08-05T10:45:34;18.80;99.90
935;DHT22;454;53.254;10.400;2022-08-05T10:48:29;18.70;99.90
935;DHT22;454;53.254;10.400;2022-08-05T10:50:57;18.80;99.90
935;DHT22;454;53.254;10.400;2022-08-05T10:53:36;18.70;99.90
935;DHT22;454;53.254;10.400;2022-08-05T10:56:04;18.80;99.90
935;DHT22;454;53.254;10.400;2022-08-05T10:58:32;18.90;99.90
935;DHT22;454;53.254;10.400;2022-08-05T11:01:03;19.00;99.90
935;DHT22;454;53.254;10.400;2022-08-05T11:03:30;19.10;99.90
935;DHT22;454;53.254;10.400;2022-08-05T11:06:06;19.10;99.90
935;DHT22;454;53.254;10.400;2022-08-05T11:08:33;19.20;99.90
935;DHT22;454;53.254;10.400;2022-08-05T11:11:31;19.20;99.90
935;DHT22;454;53.254;10.400;2022-08-05T11:13:59;19.30;99.90
935;DHT22;454;53.254;10.400;2022-08-05T11:16:27;19.30;99.90
935;DHT22;454;53.254;10.400;2022-08-05T11:19:23;19.30;99.90
935;DHT22;454;53.254;10.400;2022-08-05T11:21:49;19.30;99.90
935;DHT22;454;53.254;10.400;2022-08-05T11:24:16;19.30;99.90
935;DHT22;454;53.254;10.400;2022-08-05T11:26:43;19.20;99.90
935;DHT22;454;53.254;10.400;2022-08-05T11:29:34;19.00;99.90
935;DHT22;454;53.254;10.400;2022-08-05T11:32:23;18.90;99.90
935;DHT22;454;53.254;10.400;2022-08-05T11:34:51;18.80;99.90
935;DHT22;454;53.254;10.400;2022-08-05T11:40:56;18.80;99.90
935;DHT22;454;53.254;10.400;2022-08-05T11:43:24;18.70;99.90
935;DHT22;454;53.254;10.400;2022-08-05T11:45:50;18.50;99.90
935;DHT22;454;53.254;10.400;2022-08-05T11:48:18;18.50;99.90
935;DHT22;454;53.254;10.400;2022-08-05T11:50:46;18.30;99.90
935;DHT22;454;53.254;10.400;2022-08-05T11:53:13;18.30;99.90
935;DHT22;454;53.254;10.400;2022-08-05T11:55:52;18.30;99.90
935;DHT22;454;53.254;10.400;2022-08-05T11:58:24;18.30;99.90
935;DHT22;454;53.254;10.400;2022-08-05T12:01:00;18.30;99.90
935;DHT22;454;53.254;10.400;2022-08-05T12:03:28;18.30;99.90
935;DHT22;454;53.254;10.400;2022-08-05T12:06:00;18.20;99.90
935;DHT22;454;53.254;10.400;2022-08-05T12:08:27;18.10;99.90
935;DHT22;454;53.254;10.400;2022-08-05T12:10:57;18.10;99.90
935;DHT22;454;53.254;10.400;2022-08-05T12:13:24;18.10;99.90
935;DHT22;454;53.254;10.400;2022-08-05T12:15:51;18.00;99.90
935;DHT22;454;53.254;10.400;2022-08-05T12:18:18;18.00;99.90
935;DHT22;454;53.254;10.400;2022-08-05T12:20:46;18.00;99.90
935;DHT22;454;53.254;10.400;2022-08-05T12:23:13;18.00;99.90
935;DHT22;454;53.254;10.400;2022-08-05T12:25:50;18.10;99.90
935;DHT22;454;53.254;10.400;2022-08-05T12:28:35;18.00;99.90
935;DHT22;454;53.254;10.400;2022-08-05T12:31:03;18.00;99.90
935;DHT22;454;53.254;10.400;2022-08-05T12:33:31;18.00;99.90
935;DHT22;454;53.254;10.400;2022-08-05T12:36:00;18.00;99.90
935;DHT22;454;53.254;10.400;2022-08-05T12:38:27;18.10;99.90
935;DHT22;454;53.254;10.400;2022-08-05T12:40:55;18.10;99.90
935;DHT22;454;53.254;10.400;2022-08-05T12:43:22;18.20;99.90
935;DHT22;454;53.254;10.400;2022-08-05T12:45:52;18.20;99.90
935;DHT22;454;53.254;10.400;2022-08-05T12:48:20;18.20;99.90
935;DHT22;454;53.254;10.400;2022-08-05T12:51:10;18.20;99.90
935;DHT22;454;53.254;10.400;2022-08-05T12:53:40;18.30;99.90
935;DHT22;454;53.254;10.400;2022-08-05T12:56:20;18.10;99.90
935;DHT22;454;53.254;10.400;2022-08-05T12:59:12;18.20;99.90
935;DHT22;454;53.254;10.400;2022-08-05T13:01:39;18.30;99.90
935;DHT22;454;53.254;10.400;2022-08-05T13:04:06;18.30;99.90
935;DHT22;454;53.254;10.400;2022-08-05T13:06:38;18.20;99.90
935;DHT22;454;53.254;10.400;2022-08-05T13:09:06;18.20;99.90
935;DHT22;454;53.254;10.400;2022-08-05T13:11:37;18.30;99.90
935;DHT22;454;53.254;10.400;2022-08-05T13:14:18;18.30;99.90
935;DHT22;454;53.254;10.400;2022-08-05T13:16:50;18.30;99.90
935;DHT22;454;53.254;10.400;2022-08-05T13:19:20;18.30;99.90
935;DHT22;454;53.254;10.400;2022-08-05T13:21:49;18.30;99.90
935;DHT22;454;53.254;10.400;2022-08-05T13:24:17;18.30;99.90
935;DHT22;454;53.254;10.400;2022-08-05T13:26:44;18.30;99.90
935;DHT22;454;53.254;10.400;2022-08-05T13:29:11;18.30;99.90
935;DHT22;454;53.254;10.400;2022-08-05T13:31:38;18.30;99.90
935;DHT22;454;53.254;10.400;2022-08-05T13:34:05;18.50;99.90
935;DHT22;454;53.254;10.400;2022-08-05T13:36:32;18.60;99.90
935;DHT22;454;53.254;10.400;2022-08-05T13:39:01;18.60;99.90
935;DHT22;454;53.254;10.400;2022-08-05T13:41:28;18.60;99.90
935;DHT22;454;53.254;10.400;2022-08-05T13:43:55;18.70;99.90
935;DHT22;454;53.254;10.400;2022-08-05T13:46:22;18.80;99.90
935;DHT22;454;53.254;10.400;2022-08-05T13:48:49;19.00;99.90
935;DHT22;454;53.254;10.400;2022-08-05T13:51:25;19.10;99.90
935;DHT22;454;53.254;10.400;2022-08-05T13:53:52;19.20;99.90
935;DHT22;454;53.254;10.400;2022-08-05T13:56:21;19.30;99.90
935;DHT22;454;53.254;10.400;2022-08-05T13:58:47;19.40;99.90
935;DHT22;454;53.254;10.400;2022-08-05T14:01:14;19.50;99.90
935;DHT22;454;53.254;10.400;2022-08-05T14:03:41;19.70;99.90
935;DHT22;454;53.254;10.400;2022-08-05T14:06:07;19.90;99.90
935;DHT22;454;53.254;10.400;2022-08-05T14:08:33;19.80;99.90
935;DHT22;454;53.254;10.400;2022-08-05T14:11:00;20.00;99.90
935;DHT22;454;53.254;10.400;2022-08-05T14:13:28;20.10;99.90
935;DHT22;454;53.254;10.400;2022-08-05T14:15:54;20.10;99.90
935;DHT22;454;53.254;10.400;2022-08-05T14:18:21;20.10;99.90
935;DHT22;454;53.254;10.400;2022-08-05T14:20:48;20.20;99.90
935;DHT22;454;53.254;10.400;2022-08-05T14:23:15;20.20;99.90
935;DHT22;454;53.254;10.400;2022-08-05T14:25:42;20.20;99.90
935;DHT22;454;53.254;10.400;2022-08-05T14:28:08;20.20;99.90
935;DHT22;454;53.254;10.400;2022-08-05T14:30:36;20.10;99.90
935;DHT22;454;53.254;10.400;2022-08-05T14:33:03;20.20;99.90
935;DHT22;454;53.254;10.400;2022-08-05T14:35:30;20.20;99.90
935;DHT22;454;53.254;10.400;2022-08-05T14:37:56;20.40;99.90
935;DHT22;454;53.254;10.400;2022-08-05T14:40:23;20.50;99.90
935;DHT22;454;53.254;10.400;2022-08-05T14:42:50;20.50;99.90
935;DHT22;454;53.254;10.400;2022-08-05T14:45:17;20.50;99.90
935;DHT22;454;53.254;10.400;2022-08-05T14:47:45;20.60;99.90
935;DHT22;454;53.254;10.400;2022-08-05T14:50:11;20.60;99.90
935;DHT22;454;53.254;10.400;2022-08-05T14:52:38;20.60;99.90
935;DHT22;454;53.254;10.400;2022-08-05T14:55:06;20.70;99.90
935;DHT22;454;53.254;10.400;2022-08-05T14:57:33;20.70;99.90
935;DHT22;454;53.254;10.400;2022-08-05T14:59:59;20.70;99.90
935;DHT22;454;53.254;10.400;2022-08-05T15:02:26;20.70;99.90
935;DHT22;454;53.254;10.400;2022-08-05T15:04:54;20.70;99.90
935;DHT22;454;53.254;10.400;2022-08-05T15:07:21;20.80;99.90
935;DHT22;454;53.254;10.400;2022-08-05T15:09:47;20.90;99.90
935;DHT22;454;53.254;10.400;2022-08-05T15:12:14;21.10;99.90
935;DHT22;454;53.254;10.400;2022-08-05T15:14:41;21.20;99.90
935;DHT22;454;53.254;10.400;2022-08-05T15:17:07;21.30;99.90
935;DHT22;454;53.254;10.400;2022-08-05T15:19:34;21.40;99.90
935;DHT22;454;53.254;10.400;2022-08-05T15:22:02;21.30;99.90
935;DHT22;454;53.254;10.400;2022-08-05T15:24:29;21.30;99.90
935;DHT22;454;53.254;10.400;2022-08-05T15:26:56;21.20;99.90
935;DHT22;454;53.254;10.400;2022-08-05T15:29:22;21.20;99.90
935;DHT22;454;53.254;10.400;2022-08-05T15:31:49;21.10;99.90
935;DHT22;454;53.254;10.400;2022-08-05T15:34:16;21.20;99.90
935;DHT22;454;53.254;10.400;2022-08-05T15:36:42;21.20;99.90
935;DHT22;454;53.254;10.400;2022-08-05T15:39:10;21.20;99.90
935;DHT22;454;53.254;10.400;2022-08-05T15:41:37;21.30;99.90
935;DHT22;454;53.254;10.400;2022-08-05T15:44:04;21.20;99.90
935;DHT22;454;53.254;10.400;2022-08-05T15:46:31;21.20;99.90
935;DHT22;454;53.254;10.400;2022-08-05T15:48:57;21.10;99.90
935;DHT22;454;53.254;10.400;2022-08-05T15:51:25;21.00;99.90
935;DHT22;454;53.254;10.400;2022-08-05T15:53:51;21.00;99.90
935;DHT22;454;53.254;10.400;2022-08-05T15:56:20;21.10;99.90
935;DHT22;454;53.254;10.400;2022-08-05T15:58:47;21.10;99.90
935;DHT22;454;53.254;10.400;2022-08-05T16:01:14;21.00;99.90
935;DHT22;454;53.254;10.400;2022-08-05T16:03:43;21.00;99.90
935;DHT22;454;53.254;10.400;2022-08-05T16:06:10;21.00;99.90
935;DHT22;454;53.254;10.400;2022-08-05T16:08:37;21.20;99.90
935;DHT22;454;53.254;10.400;2022-08-05T16:11:04;21.40;99.90
935;DHT22;454;53.254;10.400;2022-08-05T16:13:32;21.40;99.90
935;DHT22;454;53.254;10.400;2022-08-05T16:15:59;21.50;99.90
935;DHT22;454;53.254;10.400;2022-08-05T16:18:25;21.60;99.90
935;DHT22;454;53.254;10.400;2022-08-05T16:20:52;21.70;99.90
935;DHT22;454;53.254;10.400;2022-08-05T16:23:19;21.60;99.90
935;DHT22;454;53.254;10.400;2022-08-05T16:25:45;21.50;99.90
935;DHT22;454;53.254;10.400;2022-08-05T16:28:12;21.50;99.90
935;DHT22;454;53.254;10.400;2022-08-05T16:30:40;21.50;99.90
935;DHT22;454;53.254;10.400;2022-08-05T16:33:07;21.40;99.90
935;DHT22;454;53.254;10.400;2022-08-05T16:35:33;21.30;99.90
935;DHT22;454;53.254;10.400;2022-08-05T16:38:00;21.20;99.90
935;DHT22;454;53.254;10.400;2022-08-05T16:40:27;21.10;99.90
935;DHT22;454;53.254;10.400;2022-08-05T16:42:54;20.90;99.90
935;DHT22;454;53.254;10.400;2022-08-05T16:45:20;20.90;99.90
935;DHT22;454;53.254;10.400;2022-08-05T16:47:48;20.80;99.90
935;DHT22;454;53.254;10.400;2022-08-05T16:50:15;20.70;99.90
935;DHT22;454;53.254;10.400;2022-08-05T16:52:42;20.60;99.90
935;DHT22;454;53.254;10.400;2022-08-05T16:55:09;20.60;99.90
935;DHT22;454;53.254;10.400;2022-08-05T16:57:35;20.50;99.90
935;DHT22;454;53.254;10.400;2022-08-05T17:00:03;20.30;99.90
935;DHT22;454;53.254;10.400;2022-08-05T17:02:30;20.10;99.90
935;DHT22;454;53.254;10.400;2022-08-05T17:04:58;20.00;99.90
935;DHT22;454;53.254;10.400;2022-08-05T17:07:25;19.90;99.90
935;DHT22;454;53.254;10.400;2022-08-05T17:09:52;19.90;99.90
935;DHT22;454;53.254;10.400;2022-08-05T17:12:19;19.90;99.90
935;DHT22;454;53.254;10.400;2022-08-05T17:14:45;19.80;99.90
935;DHT22;454;53.254;10.400;2022-08-05T17:17:13;19.70;99.90
935;DHT22;454;53.254;10.400;2022-08-05T17:19:40;19.60;99.90
935;DHT22;454;53.254;10.400;2022-08-05T17:22:10;19.60;99.90
935;DHT22;454;53.254;10.400;2022-08-05T17:24:37;19.50;99.90
935;DHT22;454;53.254;10.400;2022-08-05T17:27:03;19.40;99.90
935;DHT22;454;53.254;10.400;2022-08-05T17:29:30;19.50;99.90
935;DHT22;454;53.254;10.400;2022-08-05T17:31:57;19.40;99.90
935;DHT22;454;53.254;10.400;2022-08-05T17:34:24;19.40;99.90
935;DHT22;454;53.254;10.400;2022-08-05T17:36:50;19.40;99.90
935;DHT22;454;53.254;10.400;2022-08-05T17:39:18;19.30;99.90
935;DHT22;454;53.254;10.400;2022-08-05T17:41:45;19.20;99.90
935;DHT22;454;53.254;10.400;2022-08-05T17:44:12;19.20;99.90
935;DHT22;454;53.254;10.400;2022-08-05T17:46:38;19.10;99.90
935;DHT22;454;53.254;10.400;2022-08-05T17:49:05;19.10;99.90
935;DHT22;454;53.254;10.400;2022-08-05T17:51:32;19.00;99.90
935;DHT22;454;53.254;10.400;2022-08-05T17:53:58;19.00;99.90
935;DHT22;454;53.254;10.400;2022-08-05T17:56:26;19.00;99.90
935;DHT22;454;53.254;10.400;2022-08-05T17:58:54;18.80;99.90
935;DHT22;454;53.254;10.400;2022-08-05T18:01:20;18.80;99.90
935;DHT22;454;53.254;10.400;2022-08-05T18:03:47;18.70;99.90
935;DHT22;454;53.254;10.400;2022-08-05T18:06:14;18.60;99.90
935;DHT22;454;53.254;10.400;2022-08-05T18:08:41;18.50;99.90
935;DHT22;454;53.254;10.400;2022-08-05T18:11:08;18.40;99.90
935;DHT22;454;53.254;10.400;2022-08-05T18:13:36;18.30;99.90
935;DHT22;454;53.254;10.400;2022-08-05T18:16:04;18.30;99.90
935;DHT22;454;53.254;10.400;2022-08-05T18:18:30;18.20;99.90
935;DHT22;454;53.254;10.400;2022-08-05T18:20:58;18.10;99.90
935;DHT22;454;53.254;10.400;2022-08-05T18:23:25;18.10;99.90
935;DHT22;454;53.254;10.400;2022-08-05T18:25:52;18.00;99.90
935;DHT22;454;53.254;10.400;2022-08-05T18:28:18;17.90;99.90
935;DHT22;454;53.254;10.400;2022-08-05T18:30:47;17.90;99.90
935;DHT22;454;53.254;10.400;2022-08-05T18:33:13;17.80;99.90
935;DHT22;454;53.254;10.400;2022-08-05T18:35:40;17.80;99.90
935;DHT22;454;53.254;10.400;2022-08-05T18:38:08;17.80;99.90
935;DHT22;454;53.254;10.400;2022-08-05T18:40:34;17.70;99.90
935;DHT22;454;53.254;10.400;2022-08-05T18:43:01;17.70;99.90
935;DHT22;454;53.254;10.400;2022-08-05T18:45:29;17.60;99.90
935;DHT22;454;53.254;10.400;2022-08-05T18:47:58;17.60;99.90
935;DHT22;454;53.254;10.400;2022-08-05T18:50:24;17.50;99.90
935;DHT22;454;53.254;10.400;2022-08-05T18:53:09;17.50;99.90
935;DHT22;454;53.254;10.400;2022-08-05T18:55:35;17.40;99.90
935;DHT22;454;53.254;10.400;2022-08-05T18:58:02;17.30;99.90
935;DHT22;454;53.254;10.400;2022-08-05T19:00:29;17.30;99.90
935;DHT22;454;53.254;10.400;2022-08-05T19:02:58;17.30;99.90
935;DHT22;454;53.254;10.400;2022-08-05T19:05:24;17.20;99.90
935;DHT22;454;53.254;10.400;2022-08-05T19:07:52;17.10;99.90
935;DHT22;454;53.254;10.400;2022-08-05T19:10:21;17.10;99.90
935;DHT22;454;53.254;10.400;2022-08-05T19:12:48;17.00;99.90
935;DHT22;454;53.254;10.400;2022-08-05T19:15:15;17.00;99.90
935;DHT22;454;53.254;10.400;2022-08-05T19:17:42;16.90;99.90
935;DHT22;454;53.254;10.400;2022-08-05T19:20:11;16.90;99.90
935;DHT22;454;53.254;10.400;2022-08-05T19:22:39;16.80;99.90
935;DHT22;454;53.254;10.400;2022-08-05T19:25:06;16.80;99.90
935;DHT22;454;53.254;10.400;2022-08-05T19:27:33;16.70;99.90
935;DHT22;454;53.254;10.400;2022-08-05T19:30:00;16.70;99.90
935;DHT22;454;53.254;10.400;2022-08-05T19:32:27;16.60;99.90
935;DHT22;454;53.254;10.400;2022-08-05T19:34:54;16.60;99.90
935;DHT22;454;53.254;10.400;2022-08-05T19:37:23;16.60;99.90
935;DHT22;454;53.254;10.400;2022-08-05T19:39:50;16.50;99.90
935;DHT22;454;53.254;10.400;2022-08-05T19:42:18;16.50;99.90
935;DHT22;454;53.254;10.400;2022-08-05T19:44:45;16.40;99.90
935;DHT22;454;53.254;10.400;2022-08-05T19:47:11;16.40;99.90
935;DHT22;454;53.254;10.400;2022-08-05T19:49:38;16.30;99.90
935;DHT22;454;53.254;10.400;2022-08-05T19:52:05;16.30;99.90
935;DHT22;454;53.254;10.400;2022-08-05T19:54:34;16.30;99.90
935;DHT22;454;53.254;10.400;2022-08-05T19:57:01;16.20;99.90
935;DHT22;454;53.254;10.400;2022-08-05T19:59:28;16.20;99.90
935;DHT22;454;53.254;10.400;2022-08-05T20:01:55;16.20;99.90
935;DHT22;454;53.254;10.400;2022-08-05T20:04:22;16.20;99.90
935;DHT22;454;53.254;10.400;2022-08-05T20:06:48;16.10;99.90
935;DHT22;454;53.254;10.400;2022-08-05T20:09:16;16.10;99.90
935;DHT22;454;53.254;10.400;2022-08-05T20:11:44;16.00;99.90
935;DHT22;454;53.254;10.400;2022-08-05T20:14:10;16.00;99.90
935;DHT22;454;53.254;10.400;2022-08-05T20:16:37;15.90;99.90
935;DHT22;454;53.254;10.400;2022-08-05T20:19:04;15.90;99.90
935;DHT22;454;53.254;10.400;2022-08-05T20:21:30;15.90;99.90
935;DHT22;454;53.254;10.400;2022-08-05T20:23:57;15.80;99.90
935;DHT22;454;53.254;10.400;2022-08-05T20:26:24;15.80;99.90
935;DHT22;454;53.254;10.400;2022-08-05T20:28:54;15.80;99.90